createdAt,value
2018-03-06T00:00:49.806Z,76.87
2018-03-06T00:03:18.472Z,81.20
2018-03-06T00:05:46.427Z,86.10
2018-03-06T00:08:14.399Z,84.37
2018-03-06T00:10:45.902Z,79.53
2018-03-06T00:13:14.181Z,80.73
2018-03-06T00:15:42.087Z,90.27
2018-03-06T00:18:10.026Z,83.00
2018-03-06T00:20:37.977Z,91.20
2018-03-06T00:23:05.961Z,87.97
2018-03-06T00:25:34.438Z,78.33
2018-03-06T00:28:02.370Z,88.33
2018-03-06T00:30:30.334Z,84.10
2018-03-06T00:32:59.177Z,81.80
2018-03-06T00:35:27.131Z,84.90
2018-03-06T00:37:55.073Z,85.23
2018-03-06T00:40:23.036Z,84.13
2018-03-06T00:42:51.938Z,83.47
2018-03-06T00:45:20.203Z,83.33
2018-03-06T00:47:48.157Z,88.97
2018-03-06T00:50:16.073Z,81.33
2018-03-06T00:52:44.037Z,88.63
2018-03-06T00:55:11.978Z,90.47
2018-03-06T00:57:39.928Z,86.60
2018-03-06T01:00:07.855Z,88.47
2018-03-06T01:02:35.819Z,96.87
2018-03-06T01:05:05.958Z,92.20
2018-03-06T01:07:34.002Z,89.97
2018-03-06T01:10:01.978Z,90.50
2018-03-06T01:12:29.912Z,84.37
2018-03-06T01:14:59.292Z,93.47
2018-03-06T01:17:27.235Z,93.13
2018-03-06T01:19:56.009Z,88.47
2018-03-06T01:22:24.319Z,83.47
2018-03-06T01:24:56.416Z,92.20
2018-03-06T01:27:24.484Z,90.03
2018-03-06T01:29:52.843Z,87.90
2018-03-06T01:32:20.775Z,88.43
2018-03-06T01:34:48.703Z,94.80
2018-03-06T01:37:16.647Z,92.07
2018-03-06T01:39:44.676Z,87.47
2018-03-06T01:42:12.957Z,89.40
2018-03-06T01:44:42.789Z,89.23
2018-03-06T01:47:10.757Z,94.97
2018-03-06T01:49:39.596Z,91.80
2018-03-06T01:52:07.498Z,95.67
2018-03-06T01:54:35.433Z,86.63
2018-03-06T01:57:05.245Z,92.33
2018-03-06T01:59:33.565Z,93.50
2018-03-06T02:02:01.525Z,89.70
2018-03-06T02:04:29.797Z,89.93
2018-03-06T02:06:58.452Z,84.00
2018-03-06T02:09:26.394Z,91.53
2018-03-06T02:11:57.872Z,90.90
2018-03-06T02:14:29.327Z,85.20
2018-03-06T02:16:57.289Z,91.77
2018-03-06T02:19:25.220Z,86.63
2018-03-06T02:21:53.156Z,91.70
2018-03-06T02:24:24.477Z,93.47
2018-03-06T02:26:52.384Z,94.90
2018-03-06T02:29:20.390Z,91.50
2018-03-06T02:31:51.764Z,89.47
2018-03-06T02:34:19.674Z,93.87
2018-03-06T02:36:47.625Z,91.20
2018-03-06T02:39:15.577Z,94.57
2018-03-06T02:41:43.489Z,96.23
2018-03-06T02:44:11.432Z,87.70
2018-03-06T02:46:39.370Z,81.13
2018-03-06T02:49:07.669Z,87.07
2018-03-06T02:51:35.584Z,93.00
2018-03-06T02:54:03.546Z,92.63
2018-03-06T02:56:31.500Z,107.40
2018-03-06T02:58:59.425Z,88.50
2018-03-06T03:01:27.362Z,94.45
2018-03-06T03:03:55.368Z,85.73
2018-03-06T03:06:24.115Z,97.57
2018-03-06T03:08:52.649Z,95.63
2018-03-06T03:11:20.609Z,93.17
2018-03-06T03:13:48.536Z,88.70
2018-03-06T03:18:48.686Z,111.20
2018-03-06T03:21:17.522Z,91.57
2018-03-06T03:23:51.513Z,97.53
2018-03-06T03:26:23.183Z,98.33
2018-03-06T03:28:51.114Z,93.33
2018-03-06T03:31:19.092Z,96.73
2018-03-06T03:33:47.029Z,92.73
2018-03-06T03:36:14.997Z,93.57
2018-03-06T03:38:42.957Z,102.50
2018-03-06T03:41:10.926Z,100.87
2018-03-06T03:43:38.921Z,104.22
2018-03-06T03:46:06.888Z,98.30
2018-03-06T03:48:34.834Z,97.53
2018-03-06T03:51:02.777Z,101.12
2018-03-06T03:53:30.768Z,95.28
2018-03-06T03:55:59.639Z,89.37
2018-03-06T03:58:27.587Z,105.53
2018-03-06T04:00:55.522Z,98.53
2018-03-06T04:03:23.469Z,91.18
2018-03-06T04:05:51.436Z,94.73
2018-03-06T04:08:19.393Z,93.10
2018-03-06T04:10:47.355Z,96.30
2018-03-06T04:13:15.309Z,98.40
2018-03-06T04:15:43.270Z,98.87
2018-03-06T04:20:44.427Z,95.30
2018-03-06T04:23:12.374Z,95.15
2018-03-06T04:25:40.316Z,101.32
2018-03-06T04:28:08.343Z,98.83
2018-03-06T04:33:17.370Z,96.90
2018-03-06T04:35:51.528Z,100.20
2018-03-06T04:40:53.597Z,110.60
2018-03-06T04:43:21.519Z,99.18
2018-03-06T04:45:49.480Z,97.27
2018-03-06T04:48:17.414Z,112.90
2018-03-06T04:50:45.385Z,99.97
2018-03-06T04:53:16.657Z,100.30
2018-03-06T04:55:44.649Z,104.90
2018-03-06T04:58:12.596Z,98.20
2018-03-06T05:00:40.547Z,101.47
2018-03-06T05:03:08.482Z,96.32
2018-03-06T05:05:36.505Z,95.47
2018-03-06T05:08:04.448Z,101.43
2018-03-06T05:10:32.407Z,101.87
2018-03-06T05:13:00.360Z,99.93
2018-03-06T05:15:28.331Z,103.13
2018-03-06T05:17:56.270Z,103.15
2018-03-06T05:20:24.212Z,101.87
2018-03-06T05:22:52.159Z,102.68
2018-03-06T05:25:20.132Z,106.82
2018-03-06T05:27:48.099Z,108.07
2018-03-06T05:30:16.049Z,96.90
2018-03-06T05:32:44.032Z,115.50
2018-03-06T05:35:11.987Z,112.82
2018-03-06T05:37:39.925Z,108.47
2018-03-06T05:40:07.878Z,102.95
2018-03-06T05:42:35.814Z,104.13
2018-03-06T05:45:04.353Z,111.53
2018-03-06T05:47:32.264Z,108.82
2018-03-06T05:50:00.645Z,103.72
2018-03-06T05:52:28.606Z,104.20
2018-03-06T05:54:56.553Z,110.85
2018-03-06T05:57:24.500Z,159.60
2018-03-06T05:59:55.055Z,118.13
2018-03-06T06:02:22.985Z,109.43
2018-03-06T06:04:50.939Z,100.83
2018-03-06T06:07:18.879Z,108.78
2018-03-06T06:09:46.832Z,106.17
2018-03-06T06:12:14.773Z,108.00
2018-03-06T06:14:42.767Z,111.00
2018-03-06T06:17:10.722Z,111.55
2018-03-06T06:19:38.692Z,101.55
2018-03-06T06:22:06.636Z,112.80
2018-03-06T06:24:34.592Z,106.70
2018-03-06T06:27:02.617Z,106.30
2018-03-06T06:29:30.543Z,95.95
2018-03-06T06:31:58.486Z,110.05
2018-03-06T06:34:26.446Z,144.70
2018-03-06T06:36:54.387Z,132.97
2018-03-06T06:39:22.377Z,102.45
2018-03-06T06:41:50.374Z,108.80
2018-03-06T06:44:18.297Z,104.95
2018-03-06T06:46:46.269Z,103.20
2018-03-06T06:49:14.236Z,105.82
2018-03-06T06:51:42.167Z,104.50
2018-03-06T06:54:10.139Z,102.50
2018-03-06T06:56:38.185Z,101.03
2018-03-06T06:59:06.150Z,91.23
2018-03-06T07:01:34.083Z,108.78
2018-03-06T07:04:02.032Z,112.80
2018-03-06T07:06:30.023Z,114.53
2018-03-06T07:08:57.961Z,102.07
2018-03-06T07:11:25.969Z,106.35
2018-03-06T07:13:53.910Z,101.65
2018-03-06T07:16:22.223Z,110.10
2018-03-06T07:18:50.286Z,106.60
2018-03-06T07:21:18.318Z,103.53
2018-03-06T07:23:46.341Z,97.20
2018-03-06T07:26:14.299Z,98.00
2018-03-06T07:28:42.220Z,95.50
2018-03-06T07:31:10.144Z,97.53
2018-03-06T07:33:38.119Z,91.53
2018-03-06T07:36:06.109Z,93.83
2018-03-06T07:38:34.096Z,98.97
2018-03-06T07:41:02.044Z,98.53
2018-03-06T07:43:29.979Z,85.83
2018-03-06T07:45:57.900Z,86.53
2018-03-06T07:48:25.877Z,89.23
2018-03-06T07:50:53.821Z,88.83
2018-03-06T07:53:21.813Z,92.87
2018-03-06T07:55:49.764Z,91.77
2018-03-06T07:58:17.766Z,88.77
2018-03-06T08:00:45.739Z,91.47
2018-03-06T08:03:13.713Z,89.93
2018-03-06T08:05:41.668Z,89.83
2018-03-06T08:08:09.638Z,94.23
2018-03-06T08:10:37.571Z,81.10
2018-03-06T08:13:05.588Z,84.47
2018-03-06T08:15:33.538Z,81.40
2018-03-06T08:18:01.505Z,95.63
2018-03-06T08:20:29.474Z,85.97
2018-03-06T08:22:57.387Z,84.90
2018-03-06T08:25:25.337Z,84.93
2018-03-06T08:27:53.283Z,83.80
2018-03-06T08:30:21.216Z,85.77
2018-03-06T08:32:49.157Z,80.70
2018-03-06T08:35:17.094Z,87.97
2018-03-06T08:37:45.154Z,89.13
2018-03-06T08:40:13.133Z,85.90
2018-03-06T08:42:41.100Z,81.00
2018-03-06T08:45:09.140Z,80.07
2018-03-06T08:47:37.080Z,85.37
2018-03-06T08:50:05.025Z,75.13
2018-03-06T08:52:32.994Z,80.40
2018-03-06T08:55:00.950Z,83.50
2018-03-06T08:57:28.917Z,83.37
2018-03-06T08:59:56.819Z,86.87
2018-03-06T09:02:24.789Z,87.73
2018-03-06T09:04:52.722Z,81.77
2018-03-06T09:07:20.647Z,84.50
2018-03-06T09:09:48.576Z,87.00
2018-03-06T09:12:16.565Z,81.83
2018-03-06T09:14:44.505Z,84.03
2018-03-06T09:17:12.485Z,80.30
2018-03-06T09:19:40.702Z,77.37
2018-03-06T09:22:08.647Z,84.53
2018-03-06T09:24:37.068Z,81.97
2018-03-06T09:27:05.146Z,78.37
2018-03-06T09:29:33.131Z,79.27
2018-03-06T09:32:01.161Z,80.43
2018-03-06T09:34:29.194Z,79.53
2018-03-06T09:36:57.360Z,80.40
2018-03-06T09:39:25.268Z,77.87
2018-03-06T09:41:53.242Z,85.27
2018-03-06T09:44:21.221Z,79.90
2018-03-06T09:46:49.156Z,75.03
2018-03-06T09:49:17.134Z,80.07
2018-03-06T09:51:45.131Z,85.00
2018-03-06T09:54:13.132Z,79.03
2018-03-06T09:56:41.065Z,78.93
2018-03-06T09:59:09.228Z,85.50
2018-03-06T10:01:56.750Z,77.30
2018-03-06T10:04:25.551Z,80.10
2018-03-06T10:06:53.512Z,84.60
2018-03-06T10:09:21.485Z,81.90
2018-03-06T10:11:49.479Z,86.00
2018-03-06T10:14:17.423Z,85.60
2018-03-06T10:16:45.374Z,84.17
2018-03-06T10:19:13.361Z,92.47
2018-03-06T10:21:41.322Z,89.60
2018-03-06T10:24:09.291Z,87.40
2018-03-06T10:26:37.228Z,96.77
2018-03-06T10:29:05.195Z,90.63
2018-03-06T10:31:33.225Z,86.50
2018-03-06T10:34:01.177Z,88.80
2018-03-06T10:36:29.161Z,92.27
2018-03-06T10:38:57.106Z,86.80
2018-03-06T10:41:25.085Z,86.03
2018-03-06T10:43:53.162Z,88.73
2018-03-06T10:46:21.121Z,84.23
2018-03-06T10:48:49.092Z,82.13
2018-03-06T10:51:17.078Z,83.93
2018-03-06T10:53:45.001Z,78.83
2018-03-06T10:56:12.968Z,86.73
2018-03-06T10:58:41.039Z,78.40
2018-03-06T11:01:09.052Z,73.73
2018-03-06T11:03:44.034Z,76.80
2018-03-06T11:06:11.993Z,85.03
2018-03-06T11:08:39.972Z,82.77
2018-03-06T11:11:07.992Z,80.30
2018-03-06T11:13:36.018Z,82.03
2018-03-06T11:16:03.989Z,82.50
2018-03-06T11:18:31.954Z,84.20
2018-03-06T11:20:59.890Z,79.83
2018-03-06T11:23:27.837Z,78.73
2018-03-06T11:25:55.784Z,79.70
2018-03-06T11:28:23.760Z,81.53
2018-03-06T11:30:51.678Z,80.33
2018-03-06T11:33:19.688Z,86.57
2018-03-06T11:35:47.675Z,81.80
2018-03-06T11:38:15.617Z,84.87
2018-03-06T11:40:43.623Z,84.60
2018-03-06T11:43:12.040Z,88.77
2018-03-06T11:45:40.097Z,78.43
2018-03-06T11:48:08.123Z,77.80
2018-03-06T11:50:36.101Z,77.53
2018-03-06T11:53:04.070Z,78.80
2018-03-06T11:55:32.033Z,74.47
2018-03-06T11:58:00.023Z,73.90
2018-03-06T12:00:28.038Z,74.63
2018-03-06T12:02:56.088Z,77.77
2018-03-06T12:05:24.123Z,78.03
2018-03-06T12:07:52.082Z,73.33
2018-03-06T12:10:20.298Z,78.53
2018-03-06T12:12:48.319Z,80.90
2018-03-06T12:15:17.170Z,71.30
2018-03-06T12:17:45.233Z,69.00
2018-03-06T12:20:13.245Z,71.40
2018-03-06T12:22:41.694Z,77.93
2018-03-06T12:25:09.715Z,75.87
2018-03-06T12:27:39.392Z,74.33
2018-03-06T12:30:07.444Z,69.47
2018-03-06T12:32:35.354Z,68.70
2018-03-06T12:35:03.311Z,66.50
2018-03-06T12:37:31.296Z,63.60
2018-03-06T12:39:59.282Z,66.20
2018-03-06T12:42:27.235Z,64.90
2018-03-06T12:44:55.183Z,68.90
2018-03-06T12:47:23.129Z,67.53
2018-03-06T12:49:51.119Z,66.90
2018-03-06T12:52:19.071Z,74.67
2018-03-06T12:54:47.132Z,118.53
2018-03-06T12:57:15.464Z,188.90
2018-03-06T12:59:43.432Z,101.67
2018-03-06T13:02:11.480Z,107.97
2018-03-06T13:04:39.455Z,91.47
2018-03-06T13:07:07.483Z,80.97
2018-03-06T13:09:35.395Z,79.83
2018-03-06T13:12:03.390Z,167.67
2018-03-06T13:14:31.328Z,89.47
2018-03-06T13:16:59.276Z,119.07
2018-03-06T13:19:27.227Z,90.20
2018-03-06T13:21:55.157Z,85.37
2018-03-06T13:24:23.102Z,80.37
2018-03-06T13:26:51.097Z,73.37
2018-03-06T13:29:19.086Z,79.00
2018-03-06T13:31:47.036Z,77.90
2018-03-06T13:34:15.014Z,75.10
2018-03-06T13:36:42.968Z,76.97
2018-03-06T13:39:10.971Z,75.43
2018-03-06T13:41:38.912Z,77.07
2018-03-06T13:44:07.104Z,74.60
2018-03-06T13:46:35.063Z,75.53
2018-03-06T13:49:02.992Z,76.73
2018-03-06T13:51:30.952Z,83.97
2018-03-06T13:53:58.946Z,79.17
2018-03-06T13:56:26.939Z,77.60
2018-03-06T13:58:54.882Z,79.87
2018-03-06T14:01:22.855Z,82.40
2018-03-06T14:03:50.903Z,80.77
2018-03-06T14:06:18.837Z,81.53
2018-03-06T14:08:46.851Z,79.23
2018-03-06T14:11:14.830Z,82.57
2018-03-06T14:13:42.825Z,80.07
2018-03-06T14:16:10.802Z,85.67
2018-03-06T14:18:38.835Z,77.80
2018-03-06T14:21:06.761Z,79.40
2018-03-06T14:23:34.701Z,78.03
2018-03-06T14:26:02.662Z,75.30
2018-03-06T14:28:30.548Z,82.43
2018-03-06T14:30:58.465Z,77.17
2018-03-06T14:33:26.374Z,82.63
2018-03-06T14:35:54.321Z,81.37
2018-03-06T14:38:22.235Z,89.57
2018-03-06T14:40:50.180Z,89.40
2018-03-06T14:43:18.109Z,92.70
2018-03-06T14:45:46.074Z,86.00
2018-03-06T14:48:14.010Z,90.00
2018-03-06T14:50:41.938Z,92.80
2018-03-06T14:53:09.909Z,102.53
2018-03-06T14:55:37.858Z,96.53
2018-03-06T14:58:05.846Z,94.43
2018-03-06T15:00:33.792Z,92.17
2018-03-06T15:03:01.730Z,94.53
2018-03-06T15:05:29.675Z,90.90
2018-03-06T15:07:57.640Z,89.77
2018-03-06T15:10:25.574Z,93.87
2018-03-06T15:12:53.577Z,90.30
2018-03-06T15:15:21.547Z,98.00
2018-03-06T15:17:49.522Z,93.47
2018-03-06T15:20:17.553Z,92.37
2018-03-06T15:22:45.490Z,93.40
2018-03-06T15:25:13.408Z,98.90
2018-03-06T15:27:41.391Z,105.67
2018-03-06T15:30:09.371Z,107.83
2018-03-06T15:32:37.341Z,106.73
2018-03-06T15:35:05.277Z,113.80
2018-03-06T15:37:33.242Z,109.67
2018-03-06T15:40:01.201Z,113.00
2018-03-06T15:42:29.209Z,111.47
2018-03-06T15:44:57.162Z,105.00
2018-03-06T15:47:25.238Z,118.67
2018-03-06T15:49:53.179Z,120.17
2018-03-06T15:52:21.153Z,115.53
2018-03-06T15:54:49.113Z,123.97
2018-03-06T15:57:17.165Z,140.50
2018-03-06T15:59:45.173Z,116.00
2018-03-06T16:02:13.135Z,112.00
2018-03-06T16:04:41.154Z,122.23
2018-03-06T16:07:09.081Z,111.00
2018-03-06T16:09:37.048Z,118.87
2018-03-06T16:12:05.054Z,134.07
2018-03-06T16:14:32.992Z,122.30
2018-03-06T16:17:01.073Z,119.80
2018-03-06T16:19:29.068Z,117.10
2018-03-06T16:21:57.059Z,112.50
2018-03-06T16:24:25.006Z,117.80
2018-03-06T16:26:52.962Z,108.40
2018-03-06T16:29:20.917Z,111.70
2018-03-06T16:31:48.836Z,114.70
2018-03-06T16:34:16.845Z,116.83
2018-03-06T16:36:44.835Z,114.80
2018-03-06T16:39:12.776Z,113.13
2018-03-06T16:41:41.716Z,193.37
2018-03-06T16:44:09.652Z,210.73
2018-03-06T16:46:37.597Z,211.67
2018-03-06T16:49:05.644Z,123.93
2018-03-06T16:51:33.573Z,106.00
2018-03-06T16:54:01.571Z,110.00
2018-03-06T16:56:29.614Z,122.90
2018-03-06T16:58:57.561Z,120.20
2018-03-06T17:01:25.515Z,121.27
2018-03-06T17:03:53.468Z,123.03
2018-03-06T17:06:21.406Z,112.77
2018-03-06T17:08:49.342Z,113.93
2018-03-06T17:11:17.304Z,123.27
2018-03-06T17:13:46.019Z,153.10
2018-03-06T17:16:15.848Z,120.20
2018-03-06T17:18:43.769Z,140.30
2018-03-06T17:21:11.702Z,130.20
2018-03-06T17:23:39.642Z,144.03
2018-03-06T17:26:07.607Z,126.63
2018-03-06T17:28:35.686Z,117.23
2018-03-06T17:31:03.673Z,114.83
2018-03-06T17:33:31.613Z,120.53
2018-03-06T17:35:59.568Z,117.93
2018-03-06T17:38:27.531Z,109.40
2018-03-06T17:40:55.499Z,116.70
2018-03-06T17:43:23.409Z,115.90
2018-03-06T17:45:51.428Z,113.23
2018-03-06T17:48:19.451Z,115.00
2018-03-06T17:50:47.427Z,118.23
2018-03-06T17:53:15.393Z,117.83
2018-03-06T17:55:43.336Z,135.73
2018-03-06T17:58:11.280Z,156.97
2018-03-06T18:00:39.214Z,125.07
2018-03-06T18:03:07.200Z,140.57
2018-03-06T18:05:35.182Z,111.20
2018-03-06T18:08:03.130Z,132.33
2018-03-06T18:10:31.082Z,246.23
2018-03-06T18:12:59.033Z,127.83
2018-03-06T18:15:27.001Z,123.70
2018-03-06T18:17:54.970Z,122.53
2018-03-06T18:20:22.936Z,111.97
2018-03-06T18:22:50.869Z,119.67
2018-03-06T18:25:18.857Z,123.07
2018-03-06T18:27:46.777Z,124.33
2018-03-06T18:30:14.712Z,118.43
2018-03-06T18:32:42.679Z,123.70
2018-03-06T18:35:10.665Z,117.03
2018-03-06T18:37:38.719Z,119.13
2018-03-06T18:40:06.668Z,125.53
2018-03-06T18:42:34.637Z,130.67
2018-03-06T18:45:02.632Z,131.73
2018-03-06T18:47:30.547Z,128.53
2018-03-06T18:50:04.077Z,127.43
2018-03-06T18:52:32.142Z,126.80
2018-03-06T18:55:00.056Z,124.10
2018-03-06T18:57:28.004Z,126.40
2018-03-06T19:03:17.829Z,121.13
2018-03-06T19:08:41.141Z,127.83
2018-03-06T19:11:09.159Z,135.30
2018-03-06T19:13:37.094Z,121.17
2018-03-06T19:16:05.037Z,212.40
2018-03-06T19:18:32.963Z,156.50
2018-03-06T19:21:00.917Z,205.53
2018-03-06T19:23:28.884Z,209.20
2018-03-06T19:25:56.904Z,148.70
2018-03-06T19:28:24.841Z,145.37
2018-03-06T19:30:52.790Z,129.33
2018-03-06T19:33:23.045Z,126.90
2018-03-06T19:35:52.096Z,123.00
2018-03-06T19:38:20.021Z,122.60
2018-03-06T19:40:48.040Z,125.77
2018-03-06T19:43:16.116Z,126.00
2018-03-06T19:45:44.047Z,125.83
2018-03-06T19:48:11.987Z,123.20
2018-03-06T19:50:39.908Z,121.00
2018-03-06T19:53:07.927Z,127.87
2018-03-06T19:55:35.866Z,134.90
2018-03-06T19:58:04.579Z,129.40
2018-03-06T20:00:32.521Z,124.97
2018-03-06T20:03:00.520Z,125.17
2018-03-06T20:05:28.482Z,130.23
2018-03-06T20:07:56.456Z,146.60
2018-03-06T20:10:24.440Z,131.00
2018-03-06T20:12:52.568Z,129.40
2018-03-06T20:15:20.589Z,129.53
2018-03-06T20:17:48.534Z,134.70
2018-03-06T20:20:17.318Z,128.17
2018-03-06T20:22:45.222Z,135.47
2018-03-06T20:25:18.843Z,130.57
2018-03-06T20:27:46.763Z,131.13
2018-03-06T20:30:20.420Z,127.17
2018-03-06T20:32:54.013Z,137.83
2018-03-06T20:35:22.002Z,135.33
2018-03-06T20:37:49.926Z,137.97
2018-03-06T20:40:23.497Z,122.70
2018-03-06T20:42:51.400Z,130.90
2018-03-06T20:45:19.352Z,144.40
2018-03-06T20:47:47.336Z,122.10
2018-03-06T20:50:15.267Z,134.00
2018-03-06T20:52:48.993Z,129.93
2018-03-06T20:55:16.977Z,144.30
2018-03-06T20:57:44.977Z,135.47
2018-03-06T21:00:12.940Z,125.13
2018-03-06T21:02:40.919Z,128.23
2018-03-06T21:05:08.898Z,137.23
2018-03-06T21:07:36.844Z,128.73
2018-03-06T21:10:04.954Z,134.93
2018-03-06T21:12:32.998Z,130.00
2018-03-06T21:15:01.089Z,132.87
2018-03-06T21:17:29.020Z,137.00
2018-03-06T21:19:57.130Z,140.47
2018-03-06T21:22:25.056Z,132.97
2018-03-06T21:24:53.196Z,308.90
2018-03-06T21:27:21.123Z,193.93
2018-03-06T21:29:49.104Z,253.00
2018-03-06T21:32:17.134Z,206.27
2018-03-06T21:34:45.081Z,178.80
2018-03-06T21:37:12.994Z,148.90
2018-03-06T21:39:40.929Z,134.63
2018-03-06T21:42:08.938Z,136.93
2018-03-06T21:44:36.866Z,134.57
2018-03-06T21:47:04.817Z,139.67
2018-03-06T21:49:32.752Z,138.97
2018-03-06T21:52:00.720Z,127.53
2018-03-06T21:54:28.663Z,133.33
2018-03-06T21:56:56.598Z,132.37
2018-03-06T21:59:24.745Z,135.70
2018-03-06T22:01:52.657Z,132.83
2018-03-06T22:04:20.672Z,133.80
2018-03-06T22:06:48.673Z,136.10
2018-03-06T22:09:17.532Z,135.77
2018-03-06T22:11:45.498Z,138.83
2018-03-06T22:14:14.118Z,136.50
2018-03-06T22:16:42.140Z,130.60
2018-03-06T22:19:10.923Z,133.17
2018-03-06T22:21:38.912Z,140.00
2018-03-06T22:24:06.857Z,137.40
2018-03-06T22:26:34.892Z,133.27
2018-03-06T22:29:02.881Z,135.17
2018-03-06T22:31:31.655Z,144.77
2018-03-06T22:33:59.634Z,141.43
2018-03-06T22:36:27.649Z,136.03
2018-03-06T22:38:55.619Z,138.50
2018-03-06T22:41:23.575Z,140.37
2018-03-06T22:43:51.537Z,138.20
2018-03-06T22:46:19.465Z,135.33
2018-03-06T22:48:47.427Z,135.10
2018-03-06T22:51:15.369Z,139.20
2018-03-06T22:53:43.334Z,130.93
2018-03-06T22:56:11.297Z,136.30
2018-03-06T22:58:39.254Z,133.80
2018-03-06T23:01:08.081Z,139.50
2018-03-06T23:03:36.021Z,130.90
2018-03-06T23:06:04.160Z,140.60
2018-03-06T23:08:32.146Z,145.87
2018-03-06T23:11:00.054Z,142.43
2018-03-06T23:13:28.178Z,137.53
2018-03-06T23:15:56.660Z,141.93
2018-03-06T23:18:24.664Z,136.73
2018-03-06T23:20:52.599Z,144.87
2018-03-06T23:23:20.568Z,135.20
2018-03-06T23:25:48.610Z,134.17
2018-03-06T23:28:16.549Z,141.77
2018-03-06T23:30:44.610Z,139.20
2018-03-06T23:33:12.621Z,138.33
2018-03-06T23:35:40.616Z,146.17
2018-03-06T23:38:08.571Z,143.73
2018-03-06T23:40:36.604Z,141.33
2018-03-06T23:43:04.591Z,144.33
2018-03-06T23:45:32.628Z,142.33
2018-03-06T23:48:00.693Z,141.27
2018-03-06T23:50:28.618Z,143.43
2018-03-06T23:52:56.681Z,146.93
2018-03-06T23:55:24.698Z,140.93
2018-03-06T23:57:52.707Z,140.97
